Time;durP1;ratioP1;P1;durP2;ratioP2;P2;SDS_P1;SDS_P2;PMS_P1;PMS_P2;Temp;Humidity;BMP_temperature;BMP_pressure;BME280_temperature;BME280_humidity;BME280_pressure;Samples;Min_cycle;Max_cycle;Signal;HPM_P1;HPM_P2
2023/12/11 00:00:06;;;;;;;16.10;8.30;;;;;;;2.57;99.31;98776.02;218219;1254;139750;-67
2023/12/11 00:05:10;;;;;;;19.10;7.80;;;;;;;2.57;99.20;98768.65;218230;1257;139718;-67
2023/12/11 00:10:15;;;;;;;15.60;7.90;;;;;;;2.58;99.45;98764.11;218447;1259;140680;-66
2023/12/11 00:15:20;;;;;;;16.80;7.10;;;;;;;2.59;99.15;98759.05;218676;1255;139466;-67
2023/12/11 00:20:24;;;;;;;17.70;7.30;;;;;;;2.58;99.19;98762.41;218081;1254;139848;-67
2023/12/11 00:25:28;;;;;;;21.30;7.10;;;;;;;2.56;99.11;98766.66;218311;1254;139552;-67
2023/12/11 00:30:33;;;;;;;14.60;8.80;;;;;;;2.56;99.39;98761.98;218233;1254;139939;-67
2023/12/11 00:35:38;;;;;;;16.70;8.40;;;;;;;2.57;99.56;98759.02;220245;1254;140032;-67
2023/12/11 00:40:42;;;;;;;19.10;7.10;;;;;;;2.58;99.39;98759.58;219264;1254;139422;-66
2023/12/11 00:45:47;;;;;;;13.00;6.90;;;;;;;2.57;99.22;98762.09;218177;1254;141948;-67
2023/12/11 00:50:52;;;;;;;15.10;8.30;;;;;;;2.58;99.31;98748.33;220880;1254;140605;-68
2023/12/11 00:55:58;;;;;;;15.80;8.00;;;;;;;2.58;99.21;98735.83;218312;1254;140147;-67
2023/12/11 01:01:02;;;;;;;12.50;8.00;;;;;;;2.57;99.06;98726.72;220733;1254;140178;-67
2023/12/11 01:06:07;;;;;;;13.20;7.70;;;;;;;2.53;99.07;98727.02;220820;1254;140111;-68
2023/12/11 01:11:11;;;;;;;19.70;9.80;;;;;;;2.53;98.91;98723.33;220399;1254;139730;-66
2023/12/11 01:16:16;;;;;;;17.30;9.10;;;;;;;2.53;98.85;98724.22;220359;1254;140097;-66
2023/12/11 01:21:21;;;;;;;15.00;7.50;;;;;;;2.55;98.56;98721.59;219630;1254;140885;-67
2023/12/11 01:26:26;;;;;;;9.40;5.90;;;;;;;2.55;98.61;98722.59;219384;1254;140178;-67
2023/12/11 01:31:31;;;;;;;22.00;12.60;;;;;;;2.53;98.73;98699.01;218558;1255;139343;-67
2023/12/11 01:36:37;;;;;;;14.40;8.40;;;;;;;2.50;98.50;98685.98;218077;1259;141193;-66
2023/12/11 01:41:41;;;;;;;16.90;11.00;;;;;;;2.45;98.62;98672.98;218266;1254;139621;-66
2023/12/11 01:46:46;;;;;;;12.90;7.40;;;;;;;2.44;98.78;98669.54;218485;1254;139807;-67
2023/12/11 01:51:52;;;;;;;14.60;6.70;;;;;;;2.44;98.99;98673.27;218590;1260;140070;-66
2023/12/11 01:56:57;;;;;;;26.80;11.20;;;;;;;2.45;98.92;98678.08;218451;1254;140545;-67
2023/12/11 02:02:03;;;;;;;14.40;7.60;;;;;;;2.42;98.94;98679.16;218032;1254;141365;-67
2023/12/11 02:07:07;;;;;;;23.70;9.20;;;;;;;2.42;98.90;98678.30;219173;1254;140105;-67
2023/12/11 02:12:12;;;;;;;16.40;6.80;;;;;;;2.38;98.81;98672.12;218049;1254;139397;-66
2023/12/11 02:17:17;;;;;;;15.00;8.00;;;;;;;2.34;98.48;98670.15;218303;1254;140749;-67
2023/12/11 02:22:21;;;;;;;10.60;6.40;;;;;;;2.27;98.44;98669.16;218288;1255;139282;-66
2023/12/11 02:27:27;;;;;;;14.60;8.80;;;;;;;2.22;98.44;98654.48;218028;1254;140335;-65
2023/12/11 02:32:31;;;;;;;17.10;9.60;;;;;;;2.18;98.53;98641.75;219229;1254;140700;-65
2023/12/11 02:37:37;;;;;;;18.00;9.80;;;;;;;2.16;98.61;98622.30;219987;1254;140111;-69
2023/12/11 02:42:49;;;;;;;14.00;7.80;;;;;;;2.17;98.48;98600.98;219674;1254;140679;-69
2023/12/11 02:48:02;;;;;;;15.40;9.60;;;;;;;2.18;98.42;98584.27;218183;1254;139849;-69
2023/12/11 02:53:08;;;;;;;16.00;8.80;;;;;;;2.18;98.23;98568.14;218221;1254;139227;-69
2023/12/11 02:58:12;;;;;;;22.90;10.80;;;;;;;2.19;98.48;98571.70;218666;1254;141377;-68
2023/12/11 03:03:17;;;;;;;17.80;9.50;;;;;;;2.17;98.36;98568.27;220729;1254;142048;-67
2023/12/11 03:08:22;;;;;;;23.70;10.40;;;;;;;2.17;98.39;98564.59;219991;1254;140665;-68
2023/12/11 03:13:26;;;;;;;13.00;7.80;;;;;;;2.22;98.04;98554.38;218965;1254;140440;-67
2023/12/11 03:18:31;;;;;;;21.40;11.70;;;;;;;2.21;98.09;98553.69;218302;1254;139993;-67
2023/12/11 03:23:37;;;;;;;17.50;8.30;;;;;;;2.19;98.05;98548.48;220267;1254;140722;-70
2023/12/11 03:28:42;;;;;;;19.10;8.40;;;;;;;2.19;98.20;98548.72;218412;1255;141611;-70
2023/12/11 03:33:47;;;;;;;22.20;9.20;;;;;;;2.22;98.15;98550.48;218157;1257;140271;-69
2023/12/11 03:38:52;;;;;;;16.60;9.20;;;;;;;2.25;98.13;98548.21;219386;1257;141659;-69
2023/12/11 03:43:57;;;;;;;21.50;9.90;;;;;;;2.26;98.31;98537.69;218710;1253;139629;-67
2023/12/11 03:49:02;;;;;;;22.80;11.80;;;;;;;2.27;98.24;98555.16;218140;1254;141241;-67
2023/12/11 03:54:07;;;;;;;17.20;7.90;;;;;;;2.27;98.23;98561.35;218408;1254;140073;-67
2023/12/11 03:59:13;;;;;;;19.80;8.70;;;;;;;2.23;98.05;98560.16;219164;1256;139749;-66
2023/12/11 04:04:18;;;;;;;15.70;9.80;;;;;;;2.22;98.34;98559.27;219183;1254;141723;-67
2023/12/11 04:09:23;;;;;;;15.50;8.50;;;;;;;2.22;98.39;98551.17;218870;1254;139450;-65
2023/12/11 04:14:28;;;;;;;13.70;7.90;;;;;;;2.23;98.31;98545.35;218455;1254;139736;-67
2023/12/11 04:19:33;;;;;;;15.10;7.80;;;;;;;2.22;98.16;98544.38;219647;1256;140236;-66
2023/12/11 04:24:37;;;;;;;19.60;9.90;;;;;;;2.19;98.16;98536.70;218201;1254;139234;-67
2023/12/11 04:29:42;;;;;;;16.90;8.00;;;;;;;2.17;98.18;98532.42;218858;1254;139742;-66
2023/12/11 04:34:46;;;;;;;11.30;6.30;;;;;;;2.15;98.47;98533.98;219963;1254;139174;-67
2023/12/11 04:39:52;;;;;;;18.40;7.40;;;;;;;2.15;98.26;98532.45;219435;1254;140562;-66
2023/12/11 04:44:57;;;;;;;18.10;9.20;;;;;;;2.12;98.16;98517.10;218900;1254;139411;-66
2023/12/11 04:50:02;;;;;;;17.30;8.80;;;;;;;2.11;98.27;98510.45;219105;1256;139786;-67
2023/12/11 04:55:07;;;;;;;13.10;6.80;;;;;;;2.13;98.39;98506.06;219775;1254;139982;-67
2023/12/11 05:00:14;;;;;;;16.70;7.80;;;;;;;2.14;98.18;98502.92;220723;1254;140715;-69
2023/12/11 05:05:19;;;;;;;12.60;7.20;;;;;;;2.13;97.98;98492.11;220154;1254;139854;-70
2023/12/11 05:10:24;;;;;;;10.20;7.90;;;;;;;2.14;98.07;98476.00;220049;1256;139573;-68
2023/12/11 05:15:28;;;;;;;14.40;9.40;;;;;;;2.16;98.27;98466.06;218653;1257;140673;-68
2023/12/11 05:20:33;;;;;;;13.20;7.60;;;;;;;2.14;98.03;98457.80;218461;1256;139921;-68
2023/12/11 05:25:37;;;;;;;10.40;5.30;;;;;;;2.13;97.96;98450.05;217942;1254;140100;-67
2023/12/11 05:30:42;;;;;;;15.00;7.00;;;;;;;2.12;98.08;98441.92;219055;1254;139844;-66
2023/12/11 05:35:47;;;;;;;19.20;10.40;;;;;;;2.10;98.28;98448.61;218829;1254;140189;-68
2023/12/11 05:40:52;;;;;;;13.80;7.20;;;;;;;2.11;98.60;98441.97;218560;1254;210251;-66
2023/12/11 05:45:57;;;;;;;11.00;4.80;;;;;;;2.12;98.44;98437.69;219127;1254;140559;-67
2023/12/11 05:51:00;;;;;;;14.40;6.30;;;;;;;2.12;98.76;98435.58;218906;1254;139611;-67
2023/12/11 05:56:06;;;;;;;14.70;5.10;;;;;;;2.13;98.66;98425.26;218723;1254;141426;-68
2023/12/11 06:01:10;;;;;;;12.70;4.80;;;;;;;2.15;98.65;98422.03;219450;1256;139723;-67
2023/12/11 06:06:15;;;;;;;15.50;9.30;;;;;;;2.14;98.50;98416.23;218122;1258;139754;-66
2023/12/11 06:11:20;;;;;;;8.30;5.60;;;;;;;2.14;98.91;98407.45;218282;1257;140598;-67
2023/12/11 06:16:26;;;;;;;12.20;5.90;;;;;;;2.12;98.84;98389.31;218134;1254;139558;-66
2023/12/11 06:21:31;;;;;;;9.20;5.40;;;;;;;2.12;99.12;98386.20;217998;1257;140824;-67
2023/12/11 06:26:36;;;;;;;13.70;6.20;;;;;;;2.14;99.17;98386.58;218726;1255;139824;-66
2023/12/11 06:31:41;;;;;;;5.90;4.40;;;;;;;2.15;99.12;98380.17;218857;1254;140122;-67
2023/12/11 06:36:45;;;;;;;10.20;4.40;;;;;;;2.14;99.49;98376.54;218430;1256;140558;-67
2023/12/11 06:41:50;;;;;;;12.80;5.60;;;;;;;2.16;99.71;98364.34;219485;1255;139739;-66
2023/12/11 06:46:55;;;;;;;8.60;5.50;;;;;;;2.20;99.90;98356.39;219778;1256;140073;-66
2023/12/11 06:51:59;;;;;;;13.90;5.70;;;;;;;2.26;99.96;98351.36;219626;1254;139639;-67
2023/12/11 06:57:04;;;;;;;9.10;5.00;;;;;;;2.30;99.94;98349.56;219682;1254;139503;-67
2023/12/11 07:02:09;;;;;;;12.80;5.20;;;;;;;2.36;99.82;98346.33;218824;1256;139432;-68
2023/12/11 07:07:14;;;;;;;8.90;5.10;;;;;;;2.39;99.90;98349.90;218962;1254;140681;-65
2023/12/11 07:12:18;;;;;;;7.40;4.00;;;;;;;2.39;99.84;98337.48;219811;1254;141889;-66
2023/12/11 07:17:22;;;;;;;8.80;5.50;;;;;;;2.41;99.91;98336.86;218830;1254;139633;-66
2023/12/11 07:22:27;;;;;;;9.70;5.50;;;;;;;2.44;99.94;98335.02;219877;1255;141412;-67
2023/12/11 07:27:33;;;;;;;8.70;4.60;;;;;;;2.47;99.97;98336.14;218468;1254;678661;-66
2023/12/11 07:32:39;;;;;;;8.70;4.30;;;;;;;2.52;99.99;98341.79;219913;1254;139841;-67
2023/12/11 07:37:44;;;;;;;11.40;4.60;;;;;;;2.55;100.00;98330.11;219625;1254;139419;-66
2023/12/11 07:42:49;;;;;;;8.20;4.40;;;;;;;2.59;99.94;98321.02;218522;1254;140273;-65
2023/12/11 07:47:54;;;;;;;10.40;3.80;;;;;;;2.64;99.99;98323.44;218510;1254;141512;-65
2023/12/11 07:52:59;;;;;;;16.80;11.40;;;;;;;2.65;99.98;98305.73;218317;1255;142221;-66
2023/12/11 07:58:04;;;;;;;12.70;9.20;;;;;;;2.68;100.00;98312.67;219320;1257;142093;-65
2023/12/11 08:03:09;;;;;;;8.00;5.10;;;;;;;2.72;100.00;98311.26;219008;1257;140152;-65
2023/12/11 08:08:13;;;;;;;10.80;6.30;;;;;;;2.75;100.00;98308.55;218198;1259;139591;-65
2023/12/11 08:13:18;;;;;;;10.90;7.10;;;;;;;2.80;99.99;98310.05;219368;1257;140878;-65
2023/12/11 08:18:23;;;;;;;7.70;5.10;;;;;;;2.88;100.00;98314.95;218656;1257;139927;-66
2023/12/11 08:23:29;;;;;;;7.20;6.50;;;;;;;2.96;100.00;98306.80;219093;1254;139738;-65
2023/12/11 08:28:34;;;;;;;6.80;6.20;;;;;;;3.06;100.00;98303.21;218908;1254;139787;-65
2023/12/11 08:33:39;;;;;;;10.50;6.80;;;;;;;3.10;100.00;98306.70;218012;1254;140794;-65
2023/12/11 08:38:44;;;;;;;9.20;6.00;;;;;;;3.13;100.00;98305.66;220138;1254;140107;-67
2023/12/11 08:43:49;;;;;;;6.70;3.60;;;;;;;3.19;100.00;98305.20;218415;1254;139969;-65
2023/12/11 08:48:54;;;;;;;11.50;5.40;;;;;;;3.23;100.00;98313.85;220007;1254;140212;-67
2023/12/11 08:53:59;;;;;;;12.10;5.90;;;;;;;3.28;99.99;98315.25;220824;1254;141468;-69
2023/12/11 08:59:03;;;;;;;7.80;4.90;;;;;;;3.35;99.97;98314.05;220926;1257;140243;-68
2023/12/11 09:04:08;;;;;;;5.70;4.30;;;;;;;3.50;100.00;98318.67;219822;1258;141060;-67
2023/12/11 09:09:13;;;;;;;11.90;5.90;;;;;;;3.61;100.00;98320.27;218676;1254;141727;-69
2023/12/11 09:14:19;;;;;;;;;;;;;;;3.68;99.98;98322.38;218730;1257;139787;-67
2023/12/11 09:19:25;;;;;;;9.70;4.30;;;;;;;3.76;100.00;98317.77;218888;1259;126614;-65
2023/12/11 09:24:47;;;;;;;8.50;4.40;;;;;;;3.87;99.94;98312.42;219393;1256;140103;-69
2023/12/11 09:29:52;;;;;;;9.60;4.30;;;;;;;3.98;99.91;98309.89;217857;1256;140609;-68
2023/12/11 09:34:56;;;;;;;7.70;6.70;;;;;;;4.10;99.99;98312.50;218744;1256;139769;-67
2023/12/11 09:40:01;;;;;;;9.00;5.60;;;;;;;4.17;99.86;98307.08;218202;1258;139706;-65
2023/12/11 09:45:08;;;;;;;6.50;5.20;;;;;;;4.25;99.90;98301.26;217983;1259;139378;-66
2023/12/11 09:50:16;;;;;;;10.20;3.90;;;;;;;4.35;99.87;98303.52;218379;1257;139610;-66
2023/12/11 09:55:19;;;;;;;6.20;4.80;;;;;;;4.45;99.93;98299.46;217968;1255;139602;-66
2023/12/11 10:00:24;;;;;;;9.60;6.10;;;;;;;4.50;99.76;98288.61;219160;1257;140102;-71
2023/12/11 10:05:28;;;;;;;4.70;2.80;;;;;;;4.59;99.49;98285.80;217902;1257;140329;-69
2023/12/11 10:10:38;;;;;;;7.40;4.70;;;;;;;4.76;99.59;98280.70;218174;1256;141036;-70
2023/12/11 10:15:44;;;;;;;11.40;4.60;;;;;;;4.91;99.73;98276.52;217940;1257;139437;-71
2023/12/11 10:20:54;;;;;;;8.70;4.50;;;;;;;5.06;99.81;98277.52;217721;1257;139720;-69
2023/12/11 10:26:06;;;;;;;7.10;4.00;;;;;;;5.24;99.47;98272.98;217902;1257;139752;-68
2023/12/11 10:31:12;;;;;;;8.70;3.10;;;;;;;5.35;99.01;98267.29;218201;1256;138915;-68
2023/12/11 10:36:17;;;;;;;9.50;4.20;;;;;;;5.41;98.75;98263.13;219446;1256;139245;-68
2023/12/11 10:41:25;;;;;;;9.30;5.20;;;;;;;5.45;98.72;98262.29;220501;1255;139733;-68
2023/12/11 10:46:31;;;;;;;5.10;3.40;;;;;;;5.45;98.72;98263.41;220245;1257;139533;-68
2023/12/11 10:51:36;;;;;;;10.00;4.80;;;;;;;5.46;98.25;98259.52;220509;1255;140686;-69
2023/12/11 10:56:46;;;;;;;5.30;3.80;;;;;;;5.47;98.04;98258.74;220588;1257;141305;-67
2023/12/11 11:01:51;;;;;;;8.50;4.30;;;;;;;5.53;98.28;98257.04;220608;1256;139919;-68
2023/12/11 11:07:08;;;;;;;6.00;3.50;;;;;;;5.65;98.58;98254.77;218022;1254;139401;-66
2023/12/11 11:12:47;;;;;;;6.60;3.80;;;;;;;5.77;98.52;98255.34;218693;1257;139341;-66
2023/12/11 11:18:02;;;;;;;10.00;6.40;;;;;;;5.83;98.56;98252.88;218420;1259;139438;-68
2023/12/11 11:23:17;;;;;;;5.20;3.50;;;;;;;5.86;97.84;98246.48;219369;1259;140537;-67
2023/12/11 11:28:41;;;;;;;5.30;3.50;;;;;;;5.89;97.88;98250.39;218267;1256;140092;-69
2023/12/11 11:33:50;;;;;;;4.40;3.20;;;;;;;6.01;98.44;98244.52;218579;1259;140323;-68
2023/12/11 11:39:02;;;;;;;5.70;3.60;;;;;;;6.14;98.02;98242.86;219310;1254;139835;-69
2023/12/11 11:44:08;;;;;;;7.40;2.90;;;;;;;6.22;97.87;98233.40;217894;1258;140337;-69
2023/12/11 11:49:36;;;;;;;5.80;3.30;;;;;;;6.23;97.49;98232.35;218586;1254;139444;-69
2023/12/11 11:54:42;;;;;;;6.40;4.20;;;;;;;6.21;96.87;98228.83;217951;1258;139603;-69
2023/12/11 11:59:48;;;;;;;7.30;3.20;;;;;;;6.18;97.07;98225.51;218208;1259;139110;-69
2023/12/11 12:05:05;;;;;;;4.50;3.10;;;;;;;6.23;96.72;98216.52;218217;1258;139407;-67
2023/12/11 12:10:17;;;;;;;5.90;3.50;;;;;;;6.26;96.66;98212.08;218072;1257;139600;-68
2023/12/11 12:15:21;;;;;;;;;;;;;;;6.31;96.64;98203.95;218065;1259;139895;-67
2023/12/11 12:20:25;;;;;;;9.00;3.50;;;;;;;6.31;96.52;98209.88;218375;1254;125875;-67
2023/12/11 12:25:32;;;;;;;13.30;3.40;;;;;;;6.31;96.24;98199.82;218723;1254;139581;-68
2023/12/11 12:30:36;;;;;;;7.30;4.10;;;;;;;6.27;95.93;98202.45;218274;1254;139938;-67
2023/12/11 12:35:44;;;;;;;7.20;4.10;;;;;;;6.26;96.12;98203.13;219593;1254;139102;-68
2023/12/11 12:40:48;;;;;;;6.20;4.00;;;;;;;6.26;96.08;98207.00;218811;1254;140151;-67
2023/12/11 12:46:00;;;;;;;10.90;5.40;;;;;;;6.25;95.77;98208.84;219514;1258;140723;-67
2023/12/11 12:51:09;;;;;;;5.80;4.50;;;;;;;6.27;95.80;98207.34;220773;1257;140865;-67
2023/12/11 12:56:17;;;;;;;4.30;3.30;;;;;;;6.28;95.53;98203.32;220599;1254;139777;-67
2023/12/11 13:01:22;;;;;;;10.30;4.30;;;;;;;6.28;95.21;98207.20;217957;1259;139000;-67
2023/12/11 13:06:27;;;;;;;9.40;3.70;;;;;;;6.27;95.48;98206.06;220437;1254;140758;-68
2023/12/11 13:11:49;;;;;;;5.50;3.30;;;;;;;6.27;95.28;98213.56;219906;1259;153022;-67
2023/12/11 13:16:55;;;;;;;6.90;3.90;;;;;;;6.25;95.10;98212.39;218058;1254;141717;-67
2023/12/11 13:22:00;;;;;;;6.40;3.60;;;;;;;6.23;94.67;98213.67;219490;1254;140183;-68
2023/12/11 13:27:05;;;;;;;6.30;3.30;;;;;;;6.21;94.77;98213.96;218136;1254;139393;-67
2023/12/11 13:32:15;;;;;;;15.20;5.40;;;;;;;6.17;95.14;98212.10;219578;1254;140948;-68
2023/12/11 13:37:19;;;;;;;8.20;4.70;;;;;;;6.15;95.26;98206.95;218880;1254;139911;-67
2023/12/11 13:42:24;;;;;;;7.90;4.50;;;;;;;6.13;95.11;98204.36;218211;1254;140156;-67
2023/12/11 13:47:29;;;;;;;9.50;4.40;;;;;;;6.09;94.44;98210.48;218619;1258;139456;-65
2023/12/11 13:52:37;;;;;;;5.70;4.10;;;;;;;6.03;94.57;98210.91;218109;1260;138929;-66
2023/12/11 13:57:43;;;;;;;7.60;4.60;;;;;;;5.96;94.74;98214.40;218908;1254;139239;-67
2023/12/11 14:02:48;;;;;;;6.30;4.80;;;;;;;5.93;94.86;98216.58;218299;1258;139672;-66
2023/12/11 14:08:07;;;;;;;3.90;3.10;;;;;;;5.94;95.29;98219.02;217921;1254;139276;-65
2023/12/11 14:13:14;;;;;;;6.20;3.60;;;;;;;5.91;95.35;98222.00;219894;1254;139158;-66
2023/12/11 14:18:21;;;;;;;27.50;8.20;;;;;;;5.88;94.90;98229.32;218954;1254;139668;-67
2023/12/11 14:23:27;;;;;;;4.80;3.60;;;;;;;5.84;94.94;98229.40;218924;1259;139699;-68
2023/12/11 14:28:33;;;;;;;6.30;4.00;;;;;;;5.81;95.21;98222.98;219010;1259;140642;-67
2023/12/11 14:33:39;;;;;;;8.10;3.90;;;;;;;5.81;95.50;98231.80;218320;1255;139607;-68
2023/12/11 14:38:45;;;;;;;4.70;3.60;;;;;;;5.80;95.44;98237.61;220696;1258;139511;-69
2023/12/11 14:43:52;;;;;;;8.90;4.90;;;;;;;5.77;95.30;98233.60;220367;1254;139545;-67
2023/12/11 14:49:00;;;;;;;6.30;4.70;;;;;;;5.77;95.42;98231.49;218090;1258;140561;-68
2023/12/11 14:54:08;;;;;;;8.60;4.90;;;;;;;5.76;95.87;98237.09;219485;1254;139656;-68
2023/12/11 14:59:14;;;;;;;12.50;5.90;;;;;;;5.76;95.68;98238.92;218576;1254;139348;-67
2023/12/11 15:04:20;;;;;;;7.00;4.30;;;;;;;5.75;95.14;98245.77;219871;1254;139898;-67
2023/12/11 15:09:36;;;;;;;10.90;5.90;;;;;;;5.71;95.01;98242.65;219537;1254;140513;-68
2023/12/11 15:14:41;;;;;;;8.90;5.60;;;;;;;5.66;95.04;98239.66;218003;1260;139876;-66
2023/12/11 15:19:46;;;;;;;6.90;4.90;;;;;;;5.62;94.68;98240.53;219299;1258;139607;-66
2023/12/11 15:24:50;;;;;;;9.90;5.40;;;;;;;5.59;94.99;98242.17;218285;1254;140158;-66
2023/12/11 15:29:55;;;;;;;11.60;5.10;;;;;;;5.58;94.95;98241.20;217833;1260;139625;-69
2023/12/11 15:35:00;;;;;;;10.40;5.80;;;;;;;5.54;95.07;98243.77;217881;1257;140580;-67
2023/12/11 15:40:07;;;;;;;11.10;5.70;;;;;;;5.53;95.05;98240.79;218265;1254;139908;-65
2023/12/11 15:45:12;;;;;;;8.90;5.10;;;;;;;5.49;95.16;98239.69;217937;1254;140393;-67
2023/12/11 15:50:17;;;;;;;14.00;6.70;;;;;;;5.45;95.07;98237.77;219517;1255;139532;-67
2023/12/11 15:55:21;;;;;;;13.50;6.80;;;;;;;5.41;95.09;98233.67;218152;1254;140098;-69
2023/12/11 16:00:26;;;;;;;18.70;11.30;;;;;;;5.33;95.32;98232.27;218387;1254;140370;-67
2023/12/11 16:05:31;;;;;;;20.10;12.40;;;;;;;5.26;95.17;98234.09;218497;1255;140319;-66
2023/12/11 16:10:38;;;;;;;17.80;7.80;;;;;;;5.22;95.14;98239.92;218017;1260;139814;-66
2023/12/11 16:15:46;;;;;;;15.40;8.60;;;;;;;5.17;95.23;98243.51;218975;1254;141498;-71
2023/12/11 16:20:51;;;;;;;15.10;6.60;;;;;;;5.16;95.38;98241.63;217840;1258;139648;-67
2023/12/11 16:25:56;;;;;;;13.70;8.10;;;;;;;5.15;95.22;98242.09;218819;1255;140568;-71
2023/12/11 16:31:08;;;;;;;14.10;9.30;;;;;;;5.13;95.14;98245.64;218401;1254;139548;-68
2023/12/11 16:36:13;;;;;;;17.80;7.70;;;;;;;5.10;95.39;98243.05;217840;1260;141525;-69
2023/12/11 16:41:27;;;;;;;9.20;6.90;;;;;;;5.11;95.46;98233.92;219710;1254;139498;-69
2023/12/11 16:46:32;;;;;;;9.50;7.50;;;;;;;5.09;95.33;98232.78;217821;1254;140460;-67
2023/12/11 16:51:38;;;;;;;11.90;7.80;;;;;;;5.07;95.53;98229.32;218815;1254;140044;-68
2023/12/11 16:56:43;;;;;;;15.10;9.80;;;;;;;5.07;95.53;98226.48;220338;1257;139737;-68
2023/12/11 17:01:48;;;;;;;16.70;9.70;;;;;;;5.06;95.46;98223.13;219553;1258;141970;-69
2023/12/11 17:06:53;;;;;;;12.50;8.30;;;;;;;5.05;95.13;98215.39;217994;1256;139740;-68
2023/12/11 17:11:58;;;;;;;13.20;7.80;;;;;;;5.00;94.97;98215.30;218465;1254;139915;-66
2023/12/11 17:17:03;;;;;;;19.90;8.70;;;;;;;4.97;95.14;98211.80;218230;1254;139790;-68
2023/12/11 17:22:11;;;;;;;10.70;8.00;;;;;;;4.95;95.12;98212.75;218170;1255;139793;-66
2023/12/11 17:27:16;;;;;;;13.70;8.50;;;;;;;4.91;95.27;98209.66;218230;1254;141066;-68
2023/12/11 17:32:20;;;;;;;14.80;9.10;;;;;;;4.91;95.51;98210.20;218319;1256;139375;-66
2023/12/11 17:37:26;;;;;;;10.40;7.30;;;;;;;4.91;95.41;98206.86;217953;1254;142190;-67
2023/12/11 17:42:30;;;;;;;12.90;6.70;;;;;;;4.92;95.46;98201.28;219059;1254;140749;-67
2023/12/11 17:47:35;;;;;;;13.40;8.60;;;;;;;4.94;95.59;98203.64;218268;1259;140729;-67
2023/12/11 17:52:39;;;;;;;22.80;20.40;;;;;;;4.92;95.74;98202.20;218202;1260;159617;-68
2023/12/11 17:57:45;;;;;;;14.60;8.70;;;;;;;4.90;95.65;98203.73;218629;1258;220989;-67
2023/12/11 18:02:52;;;;;;;12.80;7.60;;;;;;;4.90;95.86;98206.27;218277;1254;139587;-66
2023/12/11 18:07:55;;;;;;;12.90;6.70;;;;;;;4.91;96.27;98207.87;218978;1254;140007;-65
2023/12/11 18:13:01;;;;;;;9.80;6.40;;;;;;;4.88;95.88;98199.86;217882;1255;140604;-64
2023/12/11 18:18:05;;;;;;;13.60;6.80;;;;;;;4.85;96.19;98193.16;219027;1254;140099;-67
2023/12/11 18:23:08;;;;;;;14.80;7.10;;;;;;;4.84;96.07;98190.50;220132;1254;140576;-66
2023/12/11 18:28:14;;;;;;;11.70;8.90;;;;;;;4.83;96.21;98189.89;218807;1254;141887;-67
2023/12/11 18:33:18;;;;;;;10.90;7.60;;;;;;;4.82;96.24;98189.86;217550;1259;139687;-68
2023/12/11 18:38:23;;;;;;;15.50;9.80;;;;;;;4.82;96.33;98184.28;220707;1254;139789;-67
2023/12/11 18:43:27;;;;;;;11.00;8.60;;;;;;;4.82;96.50;98185.18;220691;1254;139687;-69
2023/12/11 18:48:31;;;;;;;15.90;9.60;;;;;;;4.85;96.84;98186.70;220041;1254;139615;-68
2023/12/11 18:53:36;;;;;;;19.70;9.80;;;;;;;4.86;96.21;98181.93;219349;1254;139507;-68
2023/12/11 18:58:43;;;;;;;13.70;9.80;;;;;;;4.87;96.35;98178.25;217961;1256;139691;-67
2023/12/11 19:03:49;;;;;;;17.00;10.50;;;;;;;4.87;96.66;98180.09;219544;1254;140133;-68
2023/12/11 19:08:55;;;;;;;16.10;12.00;;;;;;;4.85;96.37;98178.69;218567;1254;139779;-68
2023/12/11 19:14:00;;;;;;;15.20;10.80;;;;;;;4.85;96.49;98181.33;218893;1254;139617;-69
2023/12/11 19:19:05;;;;;;;14.40;10.00;;;;;;;4.82;96.60;98179.98;217848;1254;139535;-67
2023/12/11 19:24:11;;;;;;;13.80;9.60;;;;;;;4.80;96.68;98178.80;219499;1257;139557;-69
2023/12/11 19:29:17;;;;;;;16.50;10.20;;;;;;;4.81;96.70;98180.98;217775;1258;474638;-69
2023/12/11 19:34:22;;;;;;;12.80;8.00;;;;;;;4.79;96.67;98179.89;217866;1259;140101;-68
2023/12/11 19:39:26;;;;;;;15.90;10.00;;;;;;;4.76;96.68;98177.98;217889;1258;140684;-67
2023/12/11 19:44:33;;;;;;;17.10;10.00;;;;;;;4.75;97.07;98180.39;217856;1254;139864;-68
2023/12/11 19:49:39;;;;;;;17.10;9.30;;;;;;;4.76;96.93;98175.80;219271;1255;140239;-68
2023/12/11 19:54:45;;;;;;;18.40;10.60;;;;;;;4.75;97.17;98175.33;218071;1258;140139;-68
2023/12/11 19:59:49;;;;;;;16.20;10.60;;;;;;;4.77;97.55;98176.94;217868;1254;139716;-68
2023/12/11 20:04:54;;;;;;;15.20;9.20;;;;;;;4.77;97.43;98180.90;219054;1254;140718;-68
2023/12/11 20:10:00;;;;;;;19.00;11.00;;;;;;;4.78;97.73;98179.13;218003;1254;139976;-68
2023/12/11 20:15:05;;;;;;;15.90;10.60;;;;;;;4.78;97.62;98178.92;218552;1254;139682;-69
2023/12/11 20:20:10;;;;;;;16.10;10.80;;;;;;;4.80;97.91;98177.17;217587;1257;140203;-68
2023/12/11 20:25:13;;;;;;;12.50;9.10;;;;;;;4.82;97.97;98179.73;217849;1257;139763;-67
2023/12/11 20:30:19;;;;;;;19.10;10.80;;;;;;;4.81;98.08;98177.23;218625;1256;232460;-67
2023/12/11 20:35:22;;;;;;;17.50;9.60;;;;;;;4.81;97.92;98179.81;217811;1256;140094;-69
2023/12/11 20:40:26;;;;;;;12.30;9.10;;;;;;;4.81;98.00;98178.75;217775;1256;140316;-68
2023/12/11 20:45:29;;;;;;;18.30;12.20;;;;;;;4.79;97.93;98180.95;217618;1257;139500;-69
2023/12/11 20:50:34;;;;;;;11.00;8.00;;;;;;;4.80;98.27;98179.12;219004;1256;141422;-69
2023/12/11 20:55:45;;;;;;;16.70;10.40;;;;;;;4.82;98.16;98187.86;217886;1259;140255;-69
2023/12/11 21:00:48;;;;;;;15.50;10.20;;;;;;;4.84;98.48;98187.17;217794;1259;140753;-69
2023/12/11 21:05:52;;;;;;;14.90;10.90;;;;;;;4.83;98.40;98185.20;218153;1257;139899;-69
2023/12/11 21:10:57;;;;;;;14.40;9.80;;;;;;;4.84;98.28;98189.33;219218;1257;140778;-68
2023/12/11 21:16:03;;;;;;;16.00;10.40;;;;;;;4.85;98.41;98186.86;217996;1259;139738;-68
2023/12/11 21:21:08;;;;;;;15.50;8.50;;;;;;;4.87;98.51;98193.73;218800;1256;140863;-69
2023/12/11 21:26:18;;;;;;;15.90;8.70;;;;;;;4.91;98.52;98184.89;218094;1255;139548;-68
2023/12/11 21:31:31;;;;;;;17.00;9.60;;;;;;;4.93;98.74;98186.38;217946;1257;140626;-69
2023/12/11 21:36:40;;;;;;;15.30;8.10;;;;;;;4.97;98.73;98190.24;218296;1256;139588;-67
2023/12/11 21:41:45;;;;;;;16.70;9.70;;;;;;;4.99;98.44;98185.52;217812;1259;140029;-67
2023/12/11 21:46:50;;;;;;;12.10;9.30;;;;;;;4.98;98.55;98198.13;218931;1256;141767;-69
2023/12/11 21:51:57;;;;;;;14.80;8.10;;;;;;;5.01;98.62;98201.01;218246;1256;140425;-68
2023/12/11 21:57:02;;;;;;;11.50;8.00;;;;;;;5.03;98.51;98205.84;218211;1255;139654;-68
2023/12/11 22:02:07;;;;;;;12.90;8.60;;;;;;;5.03;98.52;98203.16;218692;1257;139999;-68
2023/12/11 22:07:12;;;;;;;9.20;6.20;;;;;;;5.03;98.40;98204.63;217840;1257;139824;-68
2023/12/11 22:12:22;;;;;;;7.20;5.00;;;;;;;5.01;98.56;98209.70;218407;1256;243973;-68
2023/12/11 22:17:27;;;;;;;8.70;6.00;;;;;;;5.01;98.52;98220.11;218786;1256;139947;-68
2023/12/11 22:22:33;;;;;;;9.40;6.50;;;;;;;5.03;98.62;98220.52;218033;1259;140410;-68
2023/12/11 22:27:40;;;;;;;16.10;7.60;;;;;;;5.03;98.69;98229.65;217916;1259;141970;-68
2023/12/11 22:32:44;;;;;;;8.80;6.00;;;;;;;5.04;98.83;98234.17;218752;1256;139526;-68
2023/12/11 22:37:49;;;;;;;9.90;7.10;;;;;;;5.05;98.82;98236.73;218050;1255;141506;-68
2023/12/11 22:42:53;;;;;;;11.90;8.90;;;;;;;5.07;99.01;98237.98;218131;1256;140402;-68
2023/12/11 22:47:57;;;;;;;11.50;7.80;;;;;;;5.10;99.48;98235.08;218258;1257;140411;-68
2023/12/11 22:53:01;;;;;;;11.20;8.00;;;;;;;5.12;99.51;98237.33;219503;1257;139843;-68
2023/12/11 22:58:05;;;;;;;12.00;7.50;;;;;;;5.12;99.05;98239.39;220666;1256;140888;-69
2023/12/11 23:03:18;;;;;;;7.60;5.50;;;;;;;5.15;99.24;98241.94;218692;1255;140604;-68
2023/12/11 23:08:23;;;;;;;12.90;8.70;;;;;;;5.15;98.75;98241.52;219326;1255;140046;-68
2023/12/11 23:13:29;;;;;;;12.20;7.50;;;;;;;5.14;98.67;98239.02;218635;1256;140093;-67
2023/12/11 23:18:34;;;;;;;13.20;9.90;;;;;;;5.14;98.63;98242.13;220603;1255;140266;-68
2023/12/11 23:23:38;;;;;;;12.20;7.90;;;;;;;5.16;99.26;98247.60;220724;1256;140235;-68
2023/12/11 23:28:43;;;;;;;16.90;10.60;;;;;;;5.21;99.08;98247.36;220780;1255;141024;-68